Time;durP1;ratioP1;P1;durP2;ratioP2;P2;SDS_P1;SDS_P2;PMS_P1;PMS_P2;Temp;Humidity;BMP_temperature;BMP_pressure;BME280_temperature;BME280_humidity;BME280_pressure;Samples;Min_cycle;Max_cycle;Signal;HPM_P1;HPM_P2
2022/06/05 00:02:28;;;;;;;18.08;12.60;;;13.90;99.90;;;;;;5026693;28;20224;-76
2022/06/05 00:05:04;;;;;;;15.48;12.07;;;13.90;99.90;;;;;;5019843;28;20220;-77
2022/06/05 00:07:37;;;;;;;14.40;12.20;;;13.90;99.90;;;;;;5014444;28;20284;-77
2022/06/05 00:10:14;;;;;;;22.00;14.15;;;13.90;99.90;;;;;;5009788;28;20236;-78
2022/06/05 00:12:51;;;;;;;19.48;14.90;;;13.90;99.90;;;;;;5009083;28;20228;-78
2022/06/05 00:15:18;;;;;;;19.20;13.80;;;13.90;99.90;;;;;;5015884;28;20239;-78
2022/06/05 00:17:45;;;;;;;18.17;13.32;;;14.00;99.90;;;;;;5010664;28;20216;-77
2022/06/05 00:20:13;;;;;;;17.27;14.00;;;13.90;99.90;;;;;;5014417;28;20275;-76
2022/06/05 00:22:41;;;;;;;17.40;14.75;;;13.90;99.90;;;;;;5002996;28;20287;-77
2022/06/05 00:25:08;;;;;;;17.13;12.68;;;13.80;99.90;;;;;;5010553;28;20206;-77
2022/06/05 00:27:42;;;;;;;17.98;13.27;;;13.80;99.90;;;;;;5017442;28;20203;-78
2022/06/05 00:30:21;;;;;;;19.42;13.85;;;13.80;99.90;;;;;;5011233;28;20608;-77
2022/06/05 00:32:52;;;;;;;16.92;13.10;;;13.90;99.90;;;;;;5014417;28;20569;-78
2022/06/05 00:35:21;;;;;;;19.10;12.98;;;13.80;99.90;;;;;;5013400;28;20213;-78
2022/06/05 00:38:02;;;;;;;16.60;13.10;;;13.80;99.90;;;;;;5014568;28;20682;-79
2022/06/05 00:40:52;;;;;;;20.75;13.02;;;13.80;99.90;;;;;;5009285;28;20631;-78
2022/06/05 00:43:22;;;;;;;17.35;12.95;;;13.80;99.90;;;;;;5011210;28;20224;-78
2022/06/05 00:45:53;;;;;;;18.45;13.85;;;13.80;99.90;;;;;;5017866;28;20211;-78
2022/06/05 00:48:20;;;;;;;19.08;14.45;;;13.80;99.90;;;;;;5022590;28;20203;-76
2022/06/05 00:50:49;;;;;;;22.48;16.13;;;13.80;99.90;;;;;;5021831;28;20200;-77
2022/06/05 00:53:16;;;;;;;13.73;12.10;;;13.80;99.90;;;;;;5026139;28;20247;-76
2022/06/05 00:55:54;;;;;;;16.70;12.77;;;13.80;99.90;;;;;;5016449;28;20545;-76
2022/06/05 00:58:21;;;;;;;17.40;12.52;;;13.80;99.90;;;;;;5020118;28;20219;-79
2022/06/05 01:01:00;;;;;;;24.80;13.18;;;13.80;99.90;;;;;;5020610;28;20569;-77
2022/06/05 01:03:27;;;;;;;15.00;12.05;;;13.80;99.90;;;;;;5018811;28;20630;-77
2022/06/05 01:05:56;;;;;;;25.30;14.05;;;13.70;99.90;;;;;;5020507;28;20205;-77
2022/06/05 01:08:23;;;;;;;17.70;13.38;;;13.70;99.90;;;;;;5018753;28;20232;-76
2022/06/05 01:11:02;;;;;;;15.82;13.13;;;13.60;99.90;;;;;;5019286;28;20197;-76
2022/06/05 01:13:43;;;;;;;20.60;13.55;;;13.60;99.90;;;;;;5011306;28;20264;-78
2022/06/05 01:16:29;;;;;;;21.70;13.95;;;13.50;99.90;;;;;;5020142;28;20200;-79
2022/06/05 01:19:11;;;;;;;19.92;14.63;;;13.50;99.90;;;;;;5026267;28;20303;-76
2022/06/05 01:22:22;;;;;;;19.65;14.98;;;13.50;99.90;;;;;;5027237;28;20267;-78
2022/06/05 01:25:36;;;;;;;18.17;14.85;;;13.50;99.90;;;;;;5035705;28;20208;-76
2022/06/05 01:28:24;;;;;;;14.82;12.35;;;13.60;99.90;;;;;;5031516;28;20222;-78
2022/06/05 01:30:57;;;;;;;19.40;13.85;;;13.60;99.90;;;;;;5005387;28;20251;-78
2022/06/05 01:33:30;;;;;;;16.48;11.18;;;13.60;99.90;;;;;;5017390;28;20619;-78
2022/06/05 01:36:09;;;;;;;15.90;12.65;;;13.50;99.90;;;;;;5013611;28;20215;-77
2022/06/05 01:38:44;;;;;;;16.08;11.45;;;13.50;99.90;;;;;;5012456;28;20265;-76
2022/06/05 01:41:16;;;;;;;14.43;12.00;;;13.50;99.90;;;;;;5025299;28;20594;-78
2022/06/05 01:43:50;;;;;;;17.20;12.73;;;13.50;99.90;;;;;;5031306;28;20205;-77
2022/06/05 01:46:22;;;;;;;18.10;13.93;;;13.50;99.90;;;;;;5011808;28;20200;-78
2022/06/05 01:48:54;;;;;;;19.35;14.48;;;13.50;99.90;;;;;;5028603;28;20575;-77
2022/06/05 01:51:30;;;;;;;15.80;13.23;;;13.40;99.90;;;;;;5020196;28;20241;-78
2022/06/05 01:54:00;;;;;;;27.10;12.63;;;13.40;99.90;;;;;;5030898;28;20196;-78
2022/06/05 01:56:35;;;;;;;17.05;12.10;;;13.40;99.90;;;;;;5021916;28;20254;-77
2022/06/05 01:59:11;;;;;;;20.65;14.63;;;13.40;99.90;;;;;;5032482;28;20282;-76
2022/06/05 02:01:42;;;;;;;15.85;13.48;;;13.40;99.90;;;;;;5019417;28;20216;-75
2022/06/05 02:04:16;;;;;;;20.77;13.07;;;13.30;99.90;;;;;;5037726;28;20204;-76
2022/06/05 02:06:53;;;;;;;16.38;10.93;;;13.20;99.90;;;;;;5027378;28;20234;-76
2022/06/05 02:09:23;;;;;;;15.88;12.68;;;13.30;99.90;;;;;;5030694;28;20209;-77
2022/06/05 02:11:51;;;;;;;16.00;12.77;;;13.30;99.90;;;;;;5027023;28;20250;-76
2022/06/05 02:14:20;;;;;;;17.05;12.70;;;13.30;99.90;;;;;;5027640;28;20242;-75
2022/06/05 02:16:47;;;;;;;13.43;11.30;;;13.30;99.90;;;;;;5026867;28;20204;-78
2022/06/05 02:19:16;;;;;;;17.23;11.55;;;13.30;99.90;;;;;;5016042;28;20570;-78
2022/06/05 02:21:44;;;;;;;14.95;11.55;;;13.30;99.90;;;;;;5015250;28;20223;-76
2022/06/05 02:24:13;;;;;;;15.43;12.02;;;13.30;99.90;;;;;;5029237;28;20208;-76
2022/06/05 02:26:42;;;;;;;16.83;11.50;;;13.30;99.90;;;;;;5028866;28;20276;-77
2022/06/05 02:29:15;;;;;;;13.27;10.73;;;13.20;99.90;;;;;;5022058;28;20299;-78
2022/06/05 02:31:57;;;;;;;12.88;9.68;;;13.20;99.90;;;;;;5014988;28;20298;-76
2022/06/05 02:34:40;;;;;;;15.93;11.68;;;13.20;99.90;;;;;;5011710;28;20255;-76
2022/06/05 02:37:18;;;;;;;15.95;12.52;;;13.20;99.90;;;;;;5016338;28;20215;-77
2022/06/05 02:39:53;;;;;;;15.30;11.98;;;13.20;99.90;;;;;;5031940;28;20701;-76
2022/06/05 02:42:29;;;;;;;15.50;11.18;;;13.10;99.90;;;;;;5003586;28;20287;-78
2022/06/05 02:45:07;;;;;;;15.05;11.98;;;13.10;99.90;;;;;;5005621;28;20250;-78
2022/06/05 02:47:43;;;;;;;15.82;10.20;;;13.10;99.90;;;;;;5019392;28;20706;-79
2022/06/05 02:50:18;;;;;;;14.93;13.38;;;13.10;99.90;;;;;;5016135;28;20286;-77
2022/06/05 02:52:46;;;;;;;13.10;9.80;;;13.10;99.90;;;;;;5014161;28;20311;-78
2022/06/05 02:55:16;;;;;;;17.35;12.02;;;13.00;99.90;;;;;;5015670;28;20628;-77
2022/06/05 02:57:44;;;;;;;12.07;10.50;;;13.10;99.90;;;;;;5012753;28;20243;-78
2022/06/05 03:00:14;;;;;;;14.05;10.38;;;13.10;99.90;;;;;;5006630;28;20492;-77
2022/06/05 03:05:27;;;;;;;12.20;10.80;;;13.20;99.90;;;;;;5009860;28;20206;-76
2022/06/05 03:07:54;;;;;;;12.40;10.40;;;13.10;99.90;;;;;;5007819;28;20697;-77
2022/06/05 03:10:22;;;;;;;14.52;11.40;;;13.10;99.90;;;;;;5010927;28;20294;-78
2022/06/05 03:12:49;;;;;;;14.10;10.40;;;13.20;99.90;;;;;;5009873;28;20251;-78
2022/06/05 03:15:17;;;;;;;9.90;8.80;;;13.10;99.90;;;;;;5015833;28;20284;-78
2022/06/05 03:17:45;;;;;;;14.30;12.48;;;13.10;99.90;;;;;;5012763;28;20284;-78
2022/06/05 03:20:20;;;;;;;17.38;12.52;;;13.10;99.90;;;;;;5028270;28;20259;-79
2022/06/05 03:22:47;;;;;;;11.77;10.05;;;13.00;99.90;;;;;;5016448;28;20262;-76
2022/06/05 03:25:18;;;;;;;12.30;9.95;;;13.10;99.90;;;;;;5018507;28;20593;-77
2022/06/05 03:27:45;;;;;;;14.40;11.10;;;13.10;99.90;;;;;;5019671;28;20214;-77
2022/06/05 03:30:14;;;;;;;13.68;10.50;;;13.00;99.90;;;;;;5016037;28;20650;-77
2022/06/05 03:32:41;;;;;;;11.82;10.40;;;13.00;99.90;;;;;;5013831;28;20229;-77
2022/06/05 03:35:10;;;;;;;14.48;11.00;;;13.10;99.90;;;;;;5010144;28;20255;-79
2022/06/05 03:37:37;;;;;;;15.05;11.23;;;13.10;99.90;;;;;;5008468;28;20256;-76
2022/06/05 03:40:08;;;;;;;12.50;10.18;;;13.10;99.90;;;;;;5010734;28;20307;-77
2022/06/05 03:42:35;;;;;;;16.08;10.55;;;13.10;99.90;;;;;;5015158;28;20227;-77
2022/06/05 03:45:03;;;;;;;13.20;10.02;;;13.20;99.90;;;;;;5017492;28;20219;-77
2022/06/05 03:47:30;;;;;;;12.82;10.32;;;13.20;99.90;;;;;;5022197;28;20227;-76
2022/06/05 03:50:06;;;;;;;11.85;10.38;;;13.30;99.90;;;;;;5037074;28;20196;-76
2022/06/05 03:52:34;;;;;;;11.90;10.60;;;13.30;99.90;;;;;;5010570;28;20270;-77
2022/06/05 03:55:02;;;;;;;12.85;10.07;;;13.40;99.90;;;;;;5021174;28;20296;-79
2022/06/05 03:57:29;;;;;;;13.77;10.43;;;13.40;99.90;;;;;;5030955;28;20197;-77
2022/06/05 03:59:56;;;;;;;11.48;9.60;;;13.50;99.90;;;;;;5014668;28;20247;-78
2022/06/05 04:02:25;;;;;;;11.77;9.73;;;13.50;99.90;;;;;;5016269;28;20754;-77
2022/06/05 04:04:52;;;;;;;11.27;9.65;;;13.60;99.90;;;;;;5021697;28;20209;-78
2022/06/05 04:07:19;;;;;;;10.32;9.32;;;13.80;99.90;;;;;;5016476;28;20212;-78
2022/06/05 04:09:47;;;;;;;13.00;9.20;;;14.30;99.90;;;;;;5020241;28;20209;-78
2022/06/05 04:12:14;;;;;;;12.00;8.80;;;15.10;99.90;;;;;;5020091;28;20264;-77
2022/06/05 04:14:41;;;;;;;10.27;8.65;;;16.00;99.90;;;;;;5031713;28;20207;-77
2022/06/05 04:17:08;;;;;;;9.80;8.90;;;16.90;99.90;;;;;;5021464;28;20271;-78
2022/06/05 04:19:35;;;;;;;10.00;8.40;;;17.80;99.90;;;;;;5024524;28;20234;-77
2022/06/05 04:22:05;;;;;;;9.60;8.20;;;18.20;99.90;;;;;;5023660;28;20470;-77
2022/06/05 04:24:32;;;;;;;8.80;7.90;;;18.90;99.90;;;;;;5017792;28;20451;-77
2022/06/05 04:27:00;;;;;;;9.27;7.90;;;19.50;99.90;;;;;;5017537;28;20824;-77
2022/06/05 04:29:27;;;;;;;8.03;7.23;;;19.90;99.90;;;;;;5009769;28;20479;-78
2022/06/05 04:31:55;;;;;;;13.27;8.00;;;20.50;99.90;;;;;;5007799;28;20511;-77
2022/06/05 04:34:23;;;;;;;7.63;6.83;;;20.80;99.00;;;;;;5032130;28;20463;-75
2022/06/05 04:36:50;;;;;;;8.33;7.50;;;21.30;97.30;;;;;;5015977;28;20527;-79
2022/06/05 04:39:17;;;;;;;7.20;6.50;;;21.70;96.00;;;;;;5009915;28;20547;-78
2022/06/05 04:41:45;;;;;;;8.50;7.03;;;22.00;95.00;;;;;;5006250;28;20549;-78
2022/06/05 04:44:17;;;;;;;8.67;7.83;;;22.00;94.50;;;;;;5012553;28;20531;-75
2022/06/05 04:46:45;;;;;;;8.10;7.20;;;22.30;93.30;;;;;;5013848;28;20447;-77
2022/06/05 04:49:14;;;;;;;8.83;6.80;;;22.50;93.40;;;;;;5017730;28;20477;-76
2022/06/05 04:51:42;;;;;;;7.60;6.90;;;23.00;92.30;;;;;;5019505;28;20533;-76
2022/06/05 04:54:12;;;;;;;8.33;7.53;;;23.40;91.40;;;;;;5006509;28;20520;-76
2022/06/05 04:56:38;;;;;;;8.87;8.07;;;23.40;90.60;;;;;;5012539;28;20794;-77
2022/06/05 04:59:06;;;;;;;8.67;7.70;;;23.20;90.50;;;;;;5005437;28;20571;-79
2022/06/05 05:01:37;;;;;;;7.40;6.53;;;23.60;90.60;;;;;;5013093;28;20930;-77
2022/06/05 05:04:07;;;;;;;7.30;6.60;;;24.10;89.20;;;;;;5014295;28;20440;-76
2022/06/05 05:06:35;;;;;;;7.90;7.20;;;24.20;88.60;;;;;;5014228;28;20467;-76
2022/06/05 05:09:03;;;;;;;7.13;6.53;;;24.50;88.80;;;;;;5009043;28;20537;-77
2022/06/05 05:11:30;;;;;;;7.03;6.40;;;25.00;85.30;;;;;;5021158;28;20448;-77
2022/06/05 05:13:58;;;;;;;7.60;6.20;;;25.00;85.00;;;;;;5013432;28;20456;-78
2022/06/05 05:16:27;;;;;;;7.03;6.27;;;25.20;84.90;;;;;;5013463;28;20452;-77
2022/06/05 05:18:56;;;;;;;6.80;6.03;;;25.60;83.30;;;;;;5009382;28;20813;-76
2022/06/05 05:21:25;;;;;;;7.53;6.77;;;25.50;83.00;;;;;;5003887;28;21000;-76
2022/06/05 05:23:53;;;;;;;8.40;7.07;;;25.50;83.20;;;;;;5014692;28;20498;-77
2022/06/05 05:26:22;;;;;;;7.43;6.07;;;25.80;82.10;;;;;;5007299;28;20447;-77
2022/06/05 05:28:50;;;;;;;6.93;6.33;;;25.60;82.60;;;;;;5008895;28;20482;-77
2022/06/05 05:31:20;;;;;;;8.10;7.40;;;26.10;81.50;;;;;;5012681;28;20514;-79
2022/06/05 05:33:49;;;;;;;7.03;6.13;;;26.20;80.50;;;;;;5004775;28;20550;-78
2022/06/05 05:36:19;;;;;;;7.57;6.87;;;26.40;80.40;;;;;;5023996;28;20482;-76
2022/06/05 05:44:13;;;;;;;6.97;6.20;;;26.00;79.70;;;;;;5015548;28;20542;-76
2022/06/05 05:46:40;;;;;;;7.97;6.40;;;26.80;79.30;;;;;;5011118;28;20821;-78
2022/06/05 05:49:07;;;;;;;6.87;6.23;;;27.70;76.70;;;;;;5029357;28;20511;-76
2022/06/05 05:51:36;;;;;;;6.90;6.30;;;27.80;74.90;;;;;;5015777;28;20522;-77
2022/06/05 05:54:04;;;;;;;5.73;5.23;;;27.30;75.60;;;;;;5017075;28;20526;-78
2022/06/05 05:56:31;;;;;;;9.20;6.40;;;27.70;75.20;;;;;;5016708;28;20447;-77
2022/06/05 05:58:58;;;;;;;6.27;5.67;;;27.60;74.10;;;;;;5014151;28;20531;-79
2022/06/05 06:01:25;;;;;;;5.37;4.87;;;27.80;74.30;;;;;;5011607;28;20927;-78
2022/06/05 06:03:52;;;;;;;6.20;5.60;;;28.10;73.70;;;;;;5018218;28;20479;-77
2022/06/05 06:06:23;;;;;;;5.87;5.27;;;28.50;72.40;;;;;;5013519;28;20459;-76
2022/06/05 06:08:53;;;;;;;5.73;5.23;;;29.10;70.50;;;;;;5015861;28;20535;-79
2022/06/05 06:11:21;;;;;;;10.60;5.97;;;29.50;69.30;;;;;;5017971;28;20443;-76
2022/06/05 06:13:48;;;;;;;5.70;5.10;;;29.50;67.70;;;;;;5018457;28;20854;-78
2022/06/05 06:16:15;;;;;;;5.03;4.63;;;29.70;68.20;;;;;;5015465;28;20519;-77
2022/06/05 06:18:42;;;;;;;5.40;4.90;;;30.20;67.40;;;;;;5026653;28;20459;-77
2022/06/05 06:21:11;;;;;;;6.47;4.60;;;30.70;65.20;;;;;;5028920;28;20562;-78
2022/06/05 06:23:38;;;;;;;5.07;4.57;;;30.80;64.70;;;;;;5021508;28;20494;-77
2022/06/05 06:26:08;;;;;;;6.37;5.00;;;31.40;63.50;;;;;;5018216;28;20444;-78
2022/06/05 06:28:35;;;;;;;7.90;4.70;;;31.40;62.30;;;;;;5017538;28;20522;-80
2022/06/05 06:31:05;;;;;;;5.03;4.53;;;31.50;62.20;;;;;;5015154;28;20487;-78
2022/06/05 06:33:32;;;;;;;8.10;4.90;;;31.40;61.30;;;;;;5013368;28;20464;-77
2022/06/05 06:36:01;;;;;;;5.13;4.63;;;30.80;60.90;;;;;;5006027;28;20500;-78
2022/06/05 06:38:29;;;;;;;5.43;4.93;;;30.20;62.50;;;;;;5009308;28;20432;-79
2022/06/05 06:41:00;;;;;;;7.73;4.53;;;30.00;62.70;;;;;;5015010;28;20487;-79
2022/06/05 06:43:29;;;;;;;5.33;4.30;;;29.10;63.40;;;;;;5019811;28;20550;-79
2022/06/05 06:45:56;;;;;;;5.77;5.17;;;28.50;65.00;;;;;;5016345;28;20543;-79
2022/06/05 06:48:23;;;;;;;5.10;4.60;;;28.20;65.10;;;;;;5012848;28;20447;-79
2022/06/05 06:50:50;;;;;;;4.93;4.43;;;27.80;66.40;;;;;;5016866;28;20528;-81
2022/06/05 06:53:17;;;;;;;4.70;4.30;;;28.10;66.80;;;;;;5009470;28;20468;-75
2022/06/05 06:55:44;;;;;;;4.87;4.37;;;27.90;66.80;;;;;;5019645;28;20480;-75
2022/06/05 06:58:11;;;;;;;5.50;4.60;;;27.70;67.10;;;;;;5015900;28;20452;-76
2022/06/05 07:00:39;;;;;;;4.30;3.83;;;27.40;68.10;;;;;;5010330;28;20566;-74
2022/06/05 07:03:07;;;;;;;4.97;4.20;;;27.30;68.60;;;;;;5013782;28;20556;-73
2022/06/05 07:05:34;;;;;;;4.97;4.30;;;27.00;69.00;;;;;;5011662;28;20538;-73
2022/06/05 07:08:01;;;;;;;6.30;4.63;;;27.10;69.90;;;;;;5009892;28;20938;-73
2022/06/05 07:10:28;;;;;;;5.10;4.17;;;27.00;69.40;;;;;;5014053;28;20953;-73
2022/06/05 07:12:55;;;;;;;6.47;4.13;;;27.50;69.10;;;;;;5015648;28;20872;-73
2022/06/05 07:15:22;;;;;;;5.03;4.27;;;28.20;68.60;;;;;;5014934;28;20468;-71
2022/06/05 07:17:50;;;;;;;3.77;3.33;;;28.40;66.30;;;;;;5025106;28;20524;-73
2022/06/05 07:20:17;;;;;;;4.33;3.93;;;29.00;66.40;;;;;;5020943;28;20479;-70
2022/06/05 07:22:44;;;;;;;4.23;3.83;;;29.90;64.90;;;;;;5018985;28;20476;-73
2022/06/05 07:25:11;;;;;;;4.33;3.93;;;30.60;63.40;;;;;;5017060;28;20470;-73
2022/06/05 07:27:38;;;;;;;4.33;3.77;;;31.10;61.80;;;;;;5016263;28;20440;-74
2022/06/05 07:30:07;;;;;;;5.70;3.47;;;31.60;59.90;;;;;;5020830;28;20918;-74
2022/06/05 07:32:35;;;;;;;4.60;3.60;;;31.90;58.80;;;;;;5011491;28;21057;-71
2022/06/05 07:35:05;;;;;;;4.30;2.90;;;31.80;59.20;;;;;;5014312;28;20957;-73
2022/06/05 07:37:33;;;;;;;4.20;3.80;;;31.60;59.10;;;;;;5014344;28;20540;-74
2022/06/05 07:40:00;;;;;;;7.37;4.50;;;31.90;58.40;;;;;;5013505;28;20507;-75
2022/06/05 07:42:27;;;;;;;3.87;3.53;;;31.40;58.80;;;;;;5010427;28;20500;-74
2022/06/05 07:44:54;;;;;;;4.83;3.80;;;31.30;58.60;;;;;;5020466;28;20527;-76
2022/06/05 07:47:21;;;;;;;4.13;3.60;;;31.10;59.10;;;;;;5013705;28;20452;-75
2022/06/05 07:49:48;;;;;;;5.90;3.70;;;31.10;59.30;;;;;;5013021;28;20443;-74
2022/06/05 07:54:57;;;;;;;4.60;3.60;;;31.10;59.20;;;;;;4990850;28;20427;-75
2022/06/05 07:57:24;;;;;;;5.00;3.77;;;31.20;59.00;;;;;;5007953;28;20825;-76
2022/06/05 07:59:51;;;;;;;4.20;3.60;;;31.40;58.90;;;;;;5014016;28;22404;-72
2022/06/05 08:02:21;;;;;;;5.53;3.77;;;31.30;58.30;;;;;;5008068;28;21001;-74
2022/06/05 08:04:49;;;;;;;3.73;3.43;;;31.40;58.00;;;;;;5015354;28;20482;-71
2022/06/05 08:07:20;;;;;;;3.83;3.53;;;31.40;58.20;;;;;;5010171;28;20444;-73
2022/06/05 08:09:48;;;;;;;3.53;3.20;;;31.80;57.70;;;;;;5009633;28;20551;-74
2022/06/05 08:12:18;;;;;;;5.50;3.70;;;31.70;57.70;;;;;;5018243;28;20558;-71
2022/06/05 08:14:47;;;;;;;5.07;3.13;;;32.00;57.30;;;;;;5009077;28;20894;-74
2022/06/05 08:17:17;;;;;;;4.43;4.03;;;32.10;56.60;;;;;;5015398;28;20448;-76
2022/06/05 08:19:45;;;;;;;3.70;3.40;;;32.10;57.00;;;;;;5012032;28;20852;-75
2022/06/05 08:22:14;;;;;;;5.07;3.50;;;32.20;56.50;;;;;;5011113;28;20464;-73
2022/06/05 08:24:42;;;;;;;3.80;3.50;;;32.30;56.50;;;;;;5011943;28;20494;-73
2022/06/05 08:27:11;;;;;;;3.53;3.23;;;32.40;56.20;;;;;;5011616;28;20447;-74
2022/06/05 08:29:39;;;;;;;3.90;3.60;;;32.30;56.30;;;;;;5012331;28;20498;-73
2022/06/05 08:32:06;;;;;;;4.00;3.27;;;32.40;56.30;;;;;;5012462;28;20514;-76
2022/06/05 08:34:33;;;;;;;6.10;3.93;;;32.40;55.70;;;;;;5012085;28;20543;-71
2022/06/05 08:42:41;;;;;;;3.80;3.50;;;32.30;56.30;;;;;;5011371;28;20496;-74
2022/06/05 08:45:15;;;;;;;4.00;3.70;;;32.70;55.60;;;;;;5026601;28;20489;-73
2022/06/05 08:47:52;;;;;;;4.40;4.00;;;32.60;55.90;;;;;;5006432;28;20452;-71
2022/06/05 08:50:28;;;;;;;4.43;3.30;;;32.20;56.00;;;;;;5013414;28;20478;-74
2022/06/05 08:52:59;;;;;;;4.40;4.00;;;31.80;56.60;;;;;;5011911;28;20502;-71
2022/06/05 08:55:32;;;;;;;4.40;4.00;;;31.30;56.70;;;;;;5013245;28;20558;-75
2022/06/05 08:58:04;;;;;;;4.90;4.00;;;31.40;57.10;;;;;;5012262;28;20506;-74
2022/06/05 09:00:36;;;;;;;3.90;3.13;;;31.10;57.50;;;;;;5013709;28;20494;-74
2022/06/05 09:03:11;;;;;;;5.97;4.43;;;30.90;57.90;;;;;;5013575;28;20534;-72
2022/06/05 09:05:41;;;;;;;5.93;4.20;;;30.80;58.20;;;;;;5015695;28;20506;-75
2022/06/05 09:08:13;;;;;;;3.73;3.43;;;30.60;57.90;;;;;;5013524;28;20825;-73
2022/06/05 09:10:46;;;;;;;4.10;3.70;;;30.60;58.30;;;;;;5013129;28;20462;-73
2022/06/05 09:13:17;;;;;;;4.83;3.70;;;30.80;58.40;;;;;;5013087;28;20471;-69
2022/06/05 09:15:49;;;;;;;5.00;4.07;;;30.80;58.80;;;;;;5014237;28;20444;-75
2022/06/05 09:18:18;;;;;;;4.60;4.20;;;31.10;58.50;;;;;;5015652;28;20450;-74
2022/06/05 09:20:51;;;;;;;4.40;3.93;;;31.10;58.40;;;;;;5019158;28;20575;-74
2022/06/05 09:23:23;;;;;;;5.03;4.53;;;30.90;58.00;;;;;;5019682;28;20468;-71
2022/06/05 09:26:04;;;;;;;3.70;3.40;;;30.60;58.10;;;;;;5024588;28;20444;-71
2022/06/05 09:29:08;;;;;;;3.93;3.63;;;30.60;59.10;;;;;;5009806;28;20527;-73
2022/06/05 09:32:27;;;;;;;3.20;2.90;;;30.30;59.20;;;;;;4980076;28;20993;-76
2022/06/05 09:34:59;;;;;;;3.90;3.53;;;30.00;60.10;;;;;;5011343;28;20949;-71
2022/06/05 09:37:31;;;;;;;4.47;4.03;;;30.00;59.60;;;;;;5015247;28;20535;-72
2022/06/05 09:40:02;;;;;;;4.40;3.43;;;30.30;60.20;;;;;;5016606;28;20538;-71
2022/06/05 09:42:52;;;;;;;5.67;3.27;;;30.40;59.30;;;;;;5022434;28;21026;-75
2022/06/05 09:45:43;;;;;;;4.00;3.60;;;30.50;59.10;;;;;;5016420;28;20443;-74
2022/06/05 09:48:22;;;;;;;3.50;3.30;;;30.00;59.40;;;;;;5017403;28;20829;-73
2022/06/05 09:50:49;;;;;;;3.97;3.67;;;29.90;59.70;;;;;;5011750;28;20471;-71
2022/06/05 09:53:22;;;;;;;3.33;2.73;;;30.10;59.80;;;;;;5013382;28;20474;-76
2022/06/05 09:56:00;;;;;;;4.47;4.10;;;30.10;60.00;;;;;;5013792;28;20976;-71
2022/06/05 09:58:48;;;;;;;5.30;3.63;;;29.60;59.20;;;;;;5015750;28;20528;-74
2022/06/05 10:01:24;;;;;;;4.33;3.83;;;29.40;60.00;;;;;;5015070;28;20563;-73
2022/06/05 10:03:52;;;;;;;5.20;3.97;;;29.40;61.70;;;;;;5014783;28;20887;-72
2022/06/05 10:06:28;;;;;;;4.37;3.57;;;29.50;60.60;;;;;;5019569;28;20482;-74
2022/06/05 10:09:04;;;;;;;5.23;3.50;;;29.80;60.40;;;;;;5017031;28;20522;-73
2022/06/05 10:11:39;;;;;;;5.20;4.17;;;29.50;60.50;;;;;;5012775;28;20443;-73
2022/06/05 10:14:21;;;;;;;3.47;3.20;;;29.50;60.70;;;;;;5014887;28;20498;-74
2022/06/05 10:16:53;;;;;;;5.50;4.37;;;29.70;60.70;;;;;;5010509;28;20586;-74
2022/06/05 10:19:32;;;;;;;4.20;3.80;;;29.80;61.20;;;;;;5014271;28;21041;-73
2022/06/05 10:22:08;;;;;;;4.77;4.37;;;29.80;59.90;;;;;;5014631;28;20624;-73
2022/06/05 10:24:51;;;;;;;5.03;3.93;;;29.60;59.60;;;;;;5007663;28;20464;-74
2022/06/05 10:27:19;;;;;;;3.67;3.37;;;29.60;59.80;;;;;;5013378;28;20755;-74
2022/06/05 10:29:50;;;;;;;4.30;3.63;;;29.40;60.60;;;;;;5013818;28;20864;-74
2022/06/05 10:32:27;;;;;;;4.40;3.77;;;28.90;61.20;;;;;;5014396;28;20462;-74
2022/06/05 10:35:01;;;;;;;4.53;4.13;;;28.90;62.20;;;;;;5015657;28;20517;-75
2022/06/05 10:37:35;;;;;;;4.27;3.97;;;28.90;62.00;;;;;;5015224;28;20448;-76
2022/06/05 10:40:19;;;;;;;4.70;3.97;;;28.60;62.50;;;;;;5019038;28;20880;-72
2022/06/05 10:42:54;;;;;;;5.27;4.77;;;28.30;63.00;;;;;;5017283;28;20546;-73
2022/06/05 10:45:35;;;;;;;5.00;3.87;;;28.20;63.60;;;;;;5023338;28;20435;-75
2022/06/05 10:48:21;;;;;;;4.93;4.23;;;28.00;63.50;;;;;;5009212;28;20449;-75
2022/06/05 10:50:54;;;;;;;4.87;4.37;;;28.00;64.00;;;;;;5008856;28;20586;-75
2022/06/05 10:53:29;;;;;;;4.57;4.17;;;27.80;63.20;;;;;;5014588;28;20471;-70
2022/06/05 10:56:25;;;;;;;4.27;3.87;;;27.60;64.10;;;;;;5012074;28;20466;-71
2022/06/05 10:58:59;;;;;;;4.33;3.50;;;27.80;65.00;;;;;;5009678;28;20523;-74
2022/06/05 11:01:47;;;;;;;4.23;3.93;;;27.60;64.60;;;;;;5010401;28;21306;-74
2022/06/05 11:04:27;;;;;;;4.70;4.20;;;27.60;64.30;;;;;;5014238;28;20487;-74
2022/06/05 11:07:00;;;;;;;4.40;4.00;;;27.40;64.60;;;;;;5007525;28;20573;-70
2022/06/05 11:09:40;;;;;;;5.00;3.87;;;27.40;64.90;;;;;;5004124;28;20553;-74
2022/06/05 11:15:06;;;;;;;4.03;3.60;;;27.30;65.90;;;;;;5014104;28;20455;-74
2022/06/05 11:17:43;;;;;;;5.77;5.27;;;27.30;65.70;;;;;;5010019;28;20539;-75
2022/06/05 11:20:14;;;;;;;4.07;3.67;;;27.50;65.70;;;;;;5019812;28;20447;-73
2022/06/05 11:22:47;;;;;;;4.23;3.83;;;27.70;66.00;;;;;;5016051;28;20571;-72
2022/06/05 11:25:23;;;;;;;4.77;4.00;;;27.90;64.90;;;;;;5018299;28;20451;-71
2022/06/05 11:27:59;;;;;;;3.67;3.37;;;27.80;65.10;;;;;;5016034;28;20853;-75
2022/06/05 11:30:36;;;;;;;7.33;4.10;;;27.80;65.30;;;;;;5011532;28;20443;-75
2022/06/05 11:33:13;;;;;;;4.03;3.73;;;27.90;65.70;;;;;;5010485;28;20463;-74
2022/06/05 11:35:56;;;;;;;4.47;3.40;;;27.90;66.00;;;;;;5007609;28;20572;-75
2022/06/05 11:38:32;;;;;;;3.53;3.23;;;28.00;66.20;;;;;;5013847;28;20447;-74
2022/06/05 11:41:05;;;;;;;5.43;3.90;;;28.00;65.60;;;;;;5012466;28;20973;-71
2022/06/05 11:43:34;;;;;;;4.60;4.03;;;28.00;64.90;;;;;;5003849;28;20468;-74
2022/06/05 11:46:10;;;;;;;4.73;4.40;;;27.90;64.50;;;;;;5015193;28;20456;-71
2022/06/05 11:48:42;;;;;;;5.97;4.30;;;28.00;65.20;;;;;;5008636;28;20526;-72
2022/06/05 11:51:19;;;;;;;4.90;4.37;;;28.30;65.10;;;;;;5013231;28;20810;-71
2022/06/05 11:53:54;;;;;;;4.03;3.73;;;28.10;63.90;;;;;;5013149;28;20443;-70
2022/06/05 11:56:39;;;;;;;4.77;3.93;;;27.90;64.70;;;;;;5013010;28;20941;-73
2022/06/05 11:59:16;;;;;;;4.77;4.07;;;27.70;65.80;;;;;;5014503;28;20446;-73
2022/06/05 12:01:48;;;;;;;5.60;3.70;;;27.70;66.30;;;;;;5014902;28;20969;-72
2022/06/05 12:04:27;;;;;;;4.43;3.90;;;27.60;66.90;;;;;;5020655;28;20483;-73
2022/06/05 12:06:57;;;;;;;4.67;4.27;;;27.70;66.30;;;;;;5012308;28;20514;-73
2022/06/05 12:09:27;;;;;;;3.67;2.97;;;27.70;66.40;;;;;;5013990;28;20519;-70
2022/06/05 12:12:00;;;;;;;4.83;4.43;;;27.80;65.60;;;;;;5015827;28;20459;-75
2022/06/05 12:14:32;;;;;;;4.90;4.33;;;28.10;65.40;;;;;;5012016;28;20543;-70
2022/06/05 12:17:12;;;;;;;5.10;4.70;;;28.20;64.70;;;;;;5013656;28;20498;-72
2022/06/05 12:19:52;;;;;;;4.03;3.60;;;28.20;64.90;;;;;;5009175;28;20440;-73
2022/06/05 12:22:26;;;;;;;5.43;4.40;;;28.10;65.10;;;;;;5014610;28;20538;-73
2022/06/05 12:24:58;;;;;;;7.10;4.60;;;28.00;65.10;;;;;;5014931;28;20487;-71
2022/06/05 12:27:25;;;;;;;5.43;4.20;;;27.90;65.50;;;;;;5016305;28;20563;-71
2022/06/05 12:29:57;;;;;;;4.57;4.17;;;27.80;65.90;;;;;;5019613;28;20505;-71
2022/06/05 12:32:31;;;;;;;5.10;4.60;;;27.80;65.80;;;;;;5019946;28;20525;-70
2022/06/05 12:35:04;;;;;;;4.30;3.90;;;27.70;65.90;;;;;;5022068;28;20452;-72
2022/06/05 12:37:43;;;;;;;4.73;3.37;;;27.50;66.30;;;;;;5019414;28;20464;-73
2022/06/05 12:40:18;;;;;;;4.80;4.40;;;27.70;66.60;;;;;;5013985;28;20443;-72
2022/06/05 12:42:52;;;;;;;3.93;3.63;;;27.80;66.80;;;;;;5004411;28;20518;-71
2022/06/05 12:45:23;;;;;;;5.40;4.30;;;27.70;66.10;;;;;;5014803;28;20475;-71
2022/06/05 12:48:13;;;;;;;4.80;3.33;;;27.80;66.30;;;;;;5013588;28;20579;-74
2022/06/05 12:50:51;;;;;;;5.50;4.30;;;28.00;66.10;;;;;;5007058;28;20479;-73
2022/06/05 12:53:28;;;;;;;4.60;4.00;;;28.10;65.90;;;;;;5010635;28;20534;-74
2022/06/05 12:56:00;;;;;;;5.57;4.67;;;28.10;66.10;;;;;;5012292;28;20906;-73
2022/06/05 12:58:34;;;;;;;4.37;3.93;;;28.10;66.30;;;;;;5005040;28;20455;-74
2022/06/05 13:01:06;;;;;;;4.40;4.07;;;28.20;65.80;;;;;;5013578;28;20797;-72
2022/06/05 13:03:43;;;;;;;3.83;3.53;;;28.20;65.70;;;;;;5005258;28;20550;-72
2022/06/05 13:06:16;;;;;;;4.77;4.03;;;28.10;66.20;;;;;;5010696;28;20570;-75
2022/06/05 13:08:49;;;;;;;4.40;4.00;;;28.00;66.10;;;;;;5005945;28;20450;-76
2022/06/05 13:11:20;;;;;;;4.10;3.80;;;27.90;66.30;;;;;;5012814;28;20494;-72
2022/06/05 13:13:58;;;;;;;4.33;4.03;;;27.80;66.60;;;;;;5008889;28;20480;-72
2022/06/05 13:16:36;;;;;;;4.40;4.10;;;27.80;67.10;;;;;;5013520;28;20460;-72
2022/06/05 13:19:20;;;;;;;4.60;4.20;;;27.70;66.70;;;;;;5015798;28;20527;-71
2022/06/05 13:21:56;;;;;;;4.83;4.43;;;27.60;66.60;;;;;;5022581;28;20498;-73
2022/06/05 13:24:33;;;;;;;5.50;4.20;;;27.40;66.40;;;;;;5019942;28;20490;-74
2022/06/05 13:27:13;;;;;;;6.43;4.83;;;27.20;67.20;;;;;;5013028;28;20458;-73